sensor_id;sensor_type;location;lat;lon;timestamp;P1;durP1;ratioP1;P2;durP2;ratioP2
5157;SDS011;2598;52.364;9.772;2024-03-08T00:01:43;29.37;;;8.47;;
5157;SDS011;2598;52.364;9.772;2024-03-08T00:04:10;18.87;;;9.53;;
5157;SDS011;2598;52.364;9.772;2024-03-08T00:06:36;19.43;;;8.17;;
5157;SDS011;2598;52.364;9.772;2024-03-08T00:09:01;17.23;;;9.13;;
5157;SDS011;2598;52.364;9.772;2024-03-08T00:11:28;23.30;;;10.07;;
5157;SDS011;2598;52.364;9.772;2024-03-08T00:13:57;19.70;;;8.60;;
5157;SDS011;2598;52.364;9.772;2024-03-08T00:16:26;23.60;;;9.07;;
5157;SDS011;2598;52.364;9.772;2024-03-08T00:18:59;21.53;;;8.43;;
5157;SDS011;2598;52.364;9.772;2024-03-08T00:21:51;17.00;;;8.73;;
5157;SDS011;2598;52.364;9.772;2024-03-08T00:24:17;20.10;;;8.70;;
5157;SDS011;2598;52.364;9.772;2024-03-08T00:26:43;19.57;;;8.90;;
5157;SDS011;2598;52.364;9.772;2024-03-08T00:29:09;18.10;;;8.10;;
5157;SDS011;2598;52.364;9.772;2024-03-08T00:31:35;20.27;;;9.63;;
5157;SDS011;2598;52.364;9.772;2024-03-08T00:34:01;18.17;;;7.97;;
5157;SDS011;2598;52.364;9.772;2024-03-08T00:36:27;16.57;;;8.30;;
5157;SDS011;2598;52.364;9.772;2024-03-08T00:38:55;19.07;;;8.50;;
5157;SDS011;2598;52.364;9.772;2024-03-08T00:41:21;21.43;;;8.17;;
5157;SDS011;2598;52.364;9.772;2024-03-08T00:43:46;17.43;;;8.90;;
5157;SDS011;2598;52.364;9.772;2024-03-08T00:46:12;16.50;;;8.20;;
5157;SDS011;2598;52.364;9.772;2024-03-08T00:48:40;17.37;;;7.80;;
5157;SDS011;2598;52.364;9.772;2024-03-08T00:51:08;19.03;;;9.00;;
5157;SDS011;2598;52.364;9.772;2024-03-08T00:53:34;18.37;;;8.73;;
5157;SDS011;2598;52.364;9.772;2024-03-08T00:56:00;17.63;;;8.60;;
5157;SDS011;2598;52.364;9.772;2024-03-08T00:58:26;20.07;;;9.37;;
5157;SDS011;2598;52.364;9.772;2024-03-08T01:00:53;21.63;;;8.43;;
5157;SDS011;2598;52.364;9.772;2024-03-08T01:03:19;19.03;;;8.00;;
5157;SDS011;2598;52.364;9.772;2024-03-08T01:05:45;25.37;;;8.87;;
5157;SDS011;2598;52.364;9.772;2024-03-08T01:08:11;21.90;;;9.23;;
5157;SDS011;2598;52.364;9.772;2024-03-08T01:10:37;18.93;;;9.00;;
5157;SDS011;2598;52.364;9.772;2024-03-08T01:13:03;25.17;;;10.67;;
5157;SDS011;2598;52.364;9.772;2024-03-08T01:15:30;22.03;;;8.60;;
5157;SDS011;2598;52.364;9.772;2024-03-08T01:17:56;18.97;;;8.33;;
5157;SDS011;2598;52.364;9.772;2024-03-08T01:20:21;20.57;;;9.30;;
5157;SDS011;2598;52.364;9.772;2024-03-08T01:22:47;15.87;;;6.97;;
5157;SDS011;2598;52.364;9.772;2024-03-08T01:25:13;18.13;;;8.87;;
5157;SDS011;2598;52.364;9.772;2024-03-08T01:27:39;19.77;;;9.27;;
5157;SDS011;2598;52.364;9.772;2024-03-08T01:30:05;17.30;;;8.73;;
5157;SDS011;2598;52.364;9.772;2024-03-08T01:32:31;17.80;;;7.83;;
5157;SDS011;2598;52.364;9.772;2024-03-08T01:34:58;16.93;;;9.33;;
5157;SDS011;2598;52.364;9.772;2024-03-08T01:37:24;20.90;;;9.43;;
5157;SDS011;2598;52.364;9.772;2024-03-08T01:39:50;20.73;;;8.73;;
5157;SDS011;2598;52.364;9.772;2024-03-08T01:42:17;23.07;;;9.10;;
5157;SDS011;2598;52.364;9.772;2024-03-08T01:44:43;20.40;;;8.90;;
5157;SDS011;2598;52.364;9.772;2024-03-08T01:47:09;18.73;;;7.73;;
5157;SDS011;2598;52.364;9.772;2024-03-08T01:49:36;19.73;;;8.03;;
5157;SDS011;2598;52.364;9.772;2024-03-08T01:52:02;18.47;;;8.23;;
5157;SDS011;2598;52.364;9.772;2024-03-08T01:54:28;21.50;;;7.90;;
5157;SDS011;2598;52.364;9.772;2024-03-08T01:56:55;16.87;;;8.03;;
5157;SDS011;2598;52.364;9.772;2024-03-08T01:59:22;16.23;;;8.30;;
5157;SDS011;2598;52.364;9.772;2024-03-08T02:01:48;23.80;;;9.60;;
5157;SDS011;2598;52.364;9.772;2024-03-08T02:04:14;16.13;;;7.53;;
5157;SDS011;2598;52.364;9.772;2024-03-08T02:06:41;19.10;;;9.23;;
5157;SDS011;2598;52.364;9.772;2024-03-08T02:09:07;18.47;;;8.40;;
5157;SDS011;2598;52.364;9.772;2024-03-08T02:11:33;16.63;;;7.70;;
5157;SDS011;2598;52.364;9.772;2024-03-08T02:14:01;19.23;;;8.20;;
5157;SDS011;2598;52.364;9.772;2024-03-08T02:16:26;15.13;;;7.70;;
5157;SDS011;2598;52.364;9.772;2024-03-08T02:18:52;18.57;;;9.30;;
5157;SDS011;2598;52.364;9.772;2024-03-08T02:21:18;24.03;;;8.37;;
5157;SDS011;2598;52.364;9.772;2024-03-08T02:23:44;19.03;;;8.70;;
5157;SDS011;2598;52.364;9.772;2024-03-08T02:26:10;17.27;;;8.50;;
5157;SDS011;2598;52.364;9.772;2024-03-08T02:28:36;18.93;;;8.33;;
5157;SDS011;2598;52.364;9.772;2024-03-08T02:31:03;17.60;;;7.30;;
5157;SDS011;2598;52.364;9.772;2024-03-08T02:33:33;18.83;;;8.10;;
5157;SDS011;2598;52.364;9.772;2024-03-08T02:35:58;19.70;;;8.67;;
5157;SDS011;2598;52.364;9.772;2024-03-08T02:38:25;24.03;;;9.43;;
5157;SDS011;2598;52.364;9.772;2024-03-08T02:40:51;19.23;;;8.83;;
5157;SDS011;2598;52.364;9.772;2024-03-08T02:43:18;16.67;;;7.83;;
5157;SDS011;2598;52.364;9.772;2024-03-08T02:45:45;19.23;;;9.03;;
5157;SDS011;2598;52.364;9.772;2024-03-08T02:48:11;16.93;;;8.40;;
5157;SDS011;2598;52.364;9.772;2024-03-08T02:50:38;18.97;;;8.87;;
5157;SDS011;2598;52.364;9.772;2024-03-08T02:53:10;18.30;;;8.60;;
5157;SDS011;2598;52.364;9.772;2024-03-08T02:55:39;20.00;;;8.67;;
5157;SDS011;2598;52.364;9.772;2024-03-08T02:58:06;21.03;;;8.30;;
5157;SDS011;2598;52.364;9.772;2024-03-08T03:00:35;17.50;;;8.03;;
5157;SDS011;2598;52.364;9.772;2024-03-08T03:03:01;22.37;;;9.00;;
5157;SDS011;2598;52.364;9.772;2024-03-08T03:05:27;19.60;;;8.93;;
5157;SDS011;2598;52.364;9.772;2024-03-08T03:07:54;21.40;;;8.67;;
5157;SDS011;2598;52.364;9.772;2024-03-08T03:10:20;21.33;;;7.43;;
5157;SDS011;2598;52.364;9.772;2024-03-08T03:12:48;16.30;;;7.27;;
5157;SDS011;2598;52.364;9.772;2024-03-08T03:15:14;18.83;;;8.43;;
5157;SDS011;2598;52.364;9.772;2024-03-08T03:17:47;17.50;;;7.60;;
5157;SDS011;2598;52.364;9.772;2024-03-08T03:20:13;23.20;;;8.57;;
5157;SDS011;2598;52.364;9.772;2024-03-08T03:22:40;14.83;;;8.30;;
5157;SDS011;2598;52.364;9.772;2024-03-08T03:25:06;19.05;;;8.30;;
5157;SDS011;2598;52.364;9.772;2024-03-08T03:27:32;20.80;;;8.77;;
5157;SDS011;2598;52.364;9.772;2024-03-08T03:29:58;16.53;;;7.47;;
5157;SDS011;2598;52.364;9.772;2024-03-08T03:32:44;19.90;;;9.27;;
5157;SDS011;2598;52.364;9.772;2024-03-08T03:35:12;20.77;;;8.83;;
5157;SDS011;2598;52.364;9.772;2024-03-08T03:37:38;16.30;;;8.13;;
5157;SDS011;2598;52.364;9.772;2024-03-08T03:40:05;24.13;;;9.80;;
5157;SDS011;2598;52.364;9.772;2024-03-08T03:42:33;17.97;;;8.93;;
5157;SDS011;2598;52.364;9.772;2024-03-08T03:44:59;16.70;;;7.87;;
5157;SDS011;2598;52.364;9.772;2024-03-08T03:47:25;16.60;;;7.40;;
5157;SDS011;2598;52.364;9.772;2024-03-08T03:49:52;18.07;;;8.30;;
5157;SDS011;2598;52.364;9.772;2024-03-08T03:52:19;20.93;;;8.70;;
5157;SDS011;2598;52.364;9.772;2024-03-08T03:54:45;16.67;;;8.73;;
5157;SDS011;2598;52.364;9.772;2024-03-08T03:57:11;20.77;;;8.70;;
5157;SDS011;2598;52.364;9.772;2024-03-08T03:59:37;19.43;;;8.53;;
5157;SDS011;2598;52.364;9.772;2024-03-08T04:02:03;22.23;;;8.70;;
5157;SDS011;2598;52.364;9.772;2024-03-08T04:04:29;18.50;;;8.17;;
5157;SDS011;2598;52.364;9.772;2024-03-08T04:06:55;17.53;;;7.80;;
5157;SDS011;2598;52.364;9.772;2024-03-08T04:09:21;20.13;;;9.13;;
5157;SDS011;2598;52.364;9.772;2024-03-08T04:11:50;16.63;;;9.05;;
5157;SDS011;2598;52.364;9.772;2024-03-08T04:14:18;22.38;;;9.50;;
5157;SDS011;2598;52.364;9.772;2024-03-08T04:16:44;19.20;;;8.23;;
5157;SDS011;2598;52.364;9.772;2024-03-08T04:19:09;19.60;;;8.20;;
5157;SDS011;2598;52.364;9.772;2024-03-08T04:21:35;20.70;;;9.10;;
5157;SDS011;2598;52.364;9.772;2024-03-08T04:24:01;23.07;;;8.83;;
5157;SDS011;2598;52.364;9.772;2024-03-08T04:26:27;20.20;;;9.30;;
5157;SDS011;2598;52.364;9.772;2024-03-08T04:28:53;17.37;;;7.80;;
5157;SDS011;2598;52.364;9.772;2024-03-08T04:31:19;17.10;;;8.40;;
5157;SDS011;2598;52.364;9.772;2024-03-08T04:33:46;24.48;;;10.63;;
5157;SDS011;2598;52.364;9.772;2024-03-08T04:36:13;17.55;;;8.15;;
5157;SDS011;2598;52.364;9.772;2024-03-08T04:38:39;29.07;;;9.07;;
5157;SDS011;2598;52.364;9.772;2024-03-08T04:41:06;21.88;;;9.65;;
5157;SDS011;2598;52.364;9.772;2024-03-08T04:43:32;19.95;;;9.32;;
5157;SDS011;2598;52.364;9.772;2024-03-08T04:45:58;21.47;;;9.63;;
5157;SDS011;2598;52.364;9.772;2024-03-08T04:48:24;22.10;;;9.70;;
5157;SDS011;2598;52.364;9.772;2024-03-08T04:50:52;19.55;;;9.93;;
5157;SDS011;2598;52.364;9.772;2024-03-08T04:53:19;25.30;;;10.73;;
5157;SDS011;2598;52.364;9.772;2024-03-08T04:55:44;21.17;;;9.40;;
5157;SDS011;2598;52.364;9.772;2024-03-08T04:58:10;25.43;;;10.17;;
5157;SDS011;2598;52.364;9.772;2024-03-08T05:00:36;30.23;;;10.83;;
5157;SDS011;2598;52.364;9.772;2024-03-08T05:03:02;31.90;;;10.80;;
5157;SDS011;2598;52.364;9.772;2024-03-08T05:05:29;22.60;;;9.70;;
5157;SDS011;2598;52.364;9.772;2024-03-08T05:07:55;21.60;;;10.00;;
5157;SDS011;2598;52.364;9.772;2024-03-08T05:10:21;24.53;;;10.47;;
5157;SDS011;2598;52.364;9.772;2024-03-08T05:12:47;21.47;;;9.77;;
5157;SDS011;2598;52.364;9.772;2024-03-08T05:15:13;21.27;;;10.37;;
5157;SDS011;2598;52.364;9.772;2024-03-08T05:17:39;24.25;;;10.63;;
5157;SDS011;2598;52.364;9.772;2024-03-08T05:20:07;22.85;;;9.70;;
5157;SDS011;2598;52.364;9.772;2024-03-08T05:22:35;22.63;;;9.23;;
5157;SDS011;2598;52.364;9.772;2024-03-08T05:25:01;25.07;;;9.97;;
5157;SDS011;2598;52.364;9.772;2024-03-08T05:27:27;23.08;;;10.98;;
5157;SDS011;2598;52.364;9.772;2024-03-08T05:29:53;18.53;;;8.90;;
5157;SDS011;2598;52.364;9.772;2024-03-08T05:32:19;19.47;;;9.20;;
5157;SDS011;2598;52.364;9.772;2024-03-08T05:34:45;19.50;;;10.13;;
5157;SDS011;2598;52.364;9.772;2024-03-08T05:37:11;21.40;;;9.90;;
5157;SDS011;2598;52.364;9.772;2024-03-08T05:39:37;22.33;;;9.40;;
5157;SDS011;2598;52.364;9.772;2024-03-08T05:42:03;24.83;;;10.52;;
5157;SDS011;2598;52.364;9.772;2024-03-08T05:44:30;19.15;;;10.25;;
5157;SDS011;2598;52.364;9.772;2024-03-08T05:46:56;24.63;;;10.27;;
5157;SDS011;2598;52.364;9.772;2024-03-08T05:49:21;22.83;;;10.90;;
5157;SDS011;2598;52.364;9.772;2024-03-08T05:51:49;21.15;;;9.48;;
5157;SDS011;2598;52.364;9.772;2024-03-08T05:54:16;22.23;;;9.60;;
5157;SDS011;2598;52.364;9.772;2024-03-08T05:56:42;22.07;;;10.60;;
5157;SDS011;2598;52.364;9.772;2024-03-08T05:59:09;24.00;;;10.55;;
5157;SDS011;2598;52.364;9.772;2024-03-08T06:01:35;19.92;;;9.63;;
5157;SDS011;2598;52.364;9.772;2024-03-08T06:04:02;23.63;;;10.25;;
5157;SDS011;2598;52.364;9.772;2024-03-08T06:06:28;32.50;;;10.85;;
5157;SDS011;2598;52.364;9.772;2024-03-08T06:08:54;33.40;;;10.50;;
5157;SDS011;2598;52.364;9.772;2024-03-08T06:11:21;23.52;;;10.75;;
5157;SDS011;2598;52.364;9.772;2024-03-08T06:13:48;27.40;;;9.75;;
5157;SDS011;2598;52.364;9.772;2024-03-08T06:16:14;23.10;;;10.00;;
5157;SDS011;2598;52.364;9.772;2024-03-08T06:18:40;20.97;;;9.60;;
5157;SDS011;2598;52.364;9.772;2024-03-08T06:21:06;27.60;;;12.10;;
5157;SDS011;2598;52.364;9.772;2024-03-08T06:23:37;26.50;;;12.30;;
5157;SDS011;2598;52.364;9.772;2024-03-08T06:26:05;24.35;;;11.43;;
5157;SDS011;2598;52.364;9.772;2024-03-08T06:28:31;32.83;;;12.07;;
5157;SDS011;2598;52.364;9.772;2024-03-08T06:30:58;24.40;;;11.00;;
5157;SDS011;2598;52.364;9.772;2024-03-08T06:33:24;23.13;;;11.40;;
5157;SDS011;2598;52.364;9.772;2024-03-08T06:35:53;21.50;;;10.32;;
5157;SDS011;2598;52.364;9.772;2024-03-08T06:38:23;26.03;;;10.67;;
5157;SDS011;2598;52.364;9.772;2024-03-08T06:40:49;20.63;;;10.10;;
5157;SDS011;2598;52.364;9.772;2024-03-08T06:43:16;22.30;;;11.27;;
5157;SDS011;2598;52.364;9.772;2024-03-08T06:45:43;27.57;;;12.27;;
5157;SDS011;2598;52.364;9.772;2024-03-08T06:48:15;22.27;;;10.80;;
5157;SDS011;2598;52.364;9.772;2024-03-08T06:50:42;29.10;;;12.40;;
5157;SDS011;2598;52.364;9.772;2024-03-08T06:53:07;24.37;;;11.20;;
5157;SDS011;2598;52.364;9.772;2024-03-08T06:55:33;22.30;;;11.47;;
5157;SDS011;2598;52.364;9.772;2024-03-08T06:58:00;34.43;;;11.57;;
5157;SDS011;2598;52.364;9.772;2024-03-08T07:00:26;25.33;;;11.17;;
5157;SDS011;2598;52.364;9.772;2024-03-08T07:02:53;25.07;;;10.47;;
5157;SDS011;2598;52.364;9.772;2024-03-08T07:05:19;23.40;;;11.50;;
5157;SDS011;2598;52.364;9.772;2024-03-08T07:07:45;29.23;;;12.83;;
5157;SDS011;2598;52.364;9.772;2024-03-08T07:10:14;23.47;;;11.70;;
5157;SDS011;2598;52.364;9.772;2024-03-08T07:12:43;25.30;;;11.47;;
5157;SDS011;2598;52.364;9.772;2024-03-08T07:15:09;24.33;;;11.60;;
5157;SDS011;2598;52.364;9.772;2024-03-08T07:17:39;24.73;;;11.27;;
5157;SDS011;2598;52.364;9.772;2024-03-08T07:20:06;24.63;;;10.67;;
5157;SDS011;2598;52.364;9.772;2024-03-08T07:22:36;24.07;;;10.93;;
5157;SDS011;2598;52.364;9.772;2024-03-08T07:25:04;21.00;;;10.17;;
5157;SDS011;2598;52.364;9.772;2024-03-08T07:27:46;28.73;;;10.43;;
5157;SDS011;2598;52.364;9.772;2024-03-08T07:30:12;24.80;;;12.33;;
5157;SDS011;2598;52.364;9.772;2024-03-08T07:32:58;22.63;;;10.30;;
5157;SDS011;2598;52.364;9.772;2024-03-08T07:35:24;26.97;;;12.27;;
5157;SDS011;2598;52.364;9.772;2024-03-08T07:37:51;26.23;;;10.77;;
5157;SDS011;2598;52.364;9.772;2024-03-08T07:40:19;21.30;;;10.77;;
5157;SDS011;2598;52.364;9.772;2024-03-08T07:42:45;22.93;;;10.60;;
5157;SDS011;2598;52.364;9.772;2024-03-08T07:45:11;25.63;;;11.50;;
5157;SDS011;2598;52.364;9.772;2024-03-08T07:47:37;27.60;;;11.17;;
5157;SDS011;2598;52.364;9.772;2024-03-08T07:50:05;25.60;;;12.03;;
5157;SDS011;2598;52.364;9.772;2024-03-08T07:52:33;21.93;;;11.30;;
5157;SDS011;2598;52.364;9.772;2024-03-08T07:54:59;21.40;;;12.20;;
5157;SDS011;2598;52.364;9.772;2024-03-08T07:57:25;22.20;;;10.40;;
5157;SDS011;2598;52.364;9.772;2024-03-08T07:59:51;24.80;;;10.73;;
5157;SDS011;2598;52.364;9.772;2024-03-08T08:02:17;21.23;;;11.00;;
5157;SDS011;2598;52.364;9.772;2024-03-08T08:04:43;28.07;;;10.83;;
5157;SDS011;2598;52.364;9.772;2024-03-08T08:07:12;23.23;;;11.43;;
5157;SDS011;2598;52.364;9.772;2024-03-08T08:09:39;20.63;;;11.03;;
5157;SDS011;2598;52.364;9.772;2024-03-08T08:12:07;21.00;;;10.50;;
5157;SDS011;2598;52.364;9.772;2024-03-08T08:14:36;23.40;;;12.93;;
5157;SDS011;2598;52.364;9.772;2024-03-08T08:17:02;28.50;;;11.77;;
5157;SDS011;2598;52.364;9.772;2024-03-08T08:19:29;30.37;;;12.93;;
5157;SDS011;2598;52.364;9.772;2024-03-08T08:21:55;22.47;;;12.47;;
5157;SDS011;2598;52.364;9.772;2024-03-08T08:24:22;24.10;;;12.07;;
5157;SDS011;2598;52.364;9.772;2024-03-08T08:26:48;28.63;;;12.00;;
5157;SDS011;2598;52.364;9.772;2024-03-08T08:29:14;25.17;;;11.00;;
5157;SDS011;2598;52.364;9.772;2024-03-08T08:31:40;19.30;;;11.30;;
5157;SDS011;2598;52.364;9.772;2024-03-08T08:34:08;33.03;;;11.40;;
5157;SDS011;2598;52.364;9.772;2024-03-08T08:36:36;24.93;;;11.93;;
5157;SDS011;2598;52.364;9.772;2024-03-08T08:39:02;26.23;;;11.93;;
5157;SDS011;2598;52.364;9.772;2024-03-08T08:41:28;21.40;;;11.53;;
5157;SDS011;2598;52.364;9.772;2024-03-08T08:43:54;27.13;;;12.50;;
5157;SDS011;2598;52.364;9.772;2024-03-08T08:46:20;24.33;;;11.83;;
5157;SDS011;2598;52.364;9.772;2024-03-08T08:48:46;21.50;;;11.50;;
5157;SDS011;2598;52.364;9.772;2024-03-08T08:51:12;32.10;;;12.63;;
5157;SDS011;2598;52.364;9.772;2024-03-08T08:53:38;25.23;;;11.80;;
5157;SDS011;2598;52.364;9.772;2024-03-08T08:56:12;26.67;;;13.13;;
5157;SDS011;2598;52.364;9.772;2024-03-08T08:58:44;25.27;;;11.60;;
5157;SDS011;2598;52.364;9.772;2024-03-08T09:01:10;20.97;;;11.83;;
5157;SDS011;2598;52.364;9.772;2024-03-08T09:03:37;30.60;;;14.00;;
5157;SDS011;2598;52.364;9.772;2024-03-08T09:06:05;23.67;;;12.10;;
5157;SDS011;2598;52.364;9.772;2024-03-08T09:08:34;25.67;;;13.10;;
5157;SDS011;2598;52.364;9.772;2024-03-08T09:11:00;24.87;;;12.87;;
5157;SDS011;2598;52.364;9.772;2024-03-08T09:13:26;25.10;;;12.70;;
5157;SDS011;2598;52.364;9.772;2024-03-08T09:15:52;27.07;;;12.57;;
5157;SDS011;2598;52.364;9.772;2024-03-08T09:18:18;28.23;;;13.67;;
5157;SDS011;2598;52.364;9.772;2024-03-08T09:20:44;25.60;;;13.47;;
5157;SDS011;2598;52.364;9.772;2024-03-08T09:23:10;25.63;;;12.30;;
5157;SDS011;2598;52.364;9.772;2024-03-08T09:25:36;28.27;;;12.93;;
5157;SDS011;2598;52.364;9.772;2024-03-08T09:28:02;24.13;;;12.10;;
5157;SDS011;2598;52.364;9.772;2024-03-08T09:30:30;25.73;;;12.73;;
5157;SDS011;2598;52.364;9.772;2024-03-08T09:32:56;27.47;;;12.87;;
5157;SDS011;2598;52.364;9.772;2024-03-08T09:35:22;22.70;;;12.07;;
5157;SDS011;2598;52.364;9.772;2024-03-08T09:37:48;23.67;;;11.80;;
5157;SDS011;2598;52.364;9.772;2024-03-08T09:40:16;25.60;;;12.60;;
5157;SDS011;2598;52.364;9.772;2024-03-08T09:42:45;23.53;;;13.07;;
5157;SDS011;2598;52.364;9.772;2024-03-08T09:45:13;25.67;;;13.20;;
5157;SDS011;2598;52.364;9.772;2024-03-08T09:47:44;24.00;;;11.60;;
5157;SDS011;2598;52.364;9.772;2024-03-08T09:50:11;25.60;;;11.77;;
5157;SDS011;2598;52.364;9.772;2024-03-08T09:52:46;25.80;;;12.73;;
5157;SDS011;2598;52.364;9.772;2024-03-08T09:55:12;24.27;;;12.43;;
5157;SDS011;2598;52.364;9.772;2024-03-08T09:57:39;27.27;;;13.10;;
5157;SDS011;2598;52.364;9.772;2024-03-08T10:00:05;27.77;;;12.53;;
5157;SDS011;2598;52.364;9.772;2024-03-08T10:02:52;22.37;;;11.53;;
5157;SDS011;2598;52.364;9.772;2024-03-08T10:05:18;25.60;;;12.70;;
5157;SDS011;2598;52.364;9.772;2024-03-08T10:07:47;27.15;;;14.00;;
5157;SDS011;2598;52.364;9.772;2024-03-08T10:10:13;30.20;;;13.13;;
5157;SDS011;2598;52.364;9.772;2024-03-08T10:12:38;25.93;;;13.03;;
5157;SDS011;2598;52.364;9.772;2024-03-08T10:15:08;27.40;;;12.80;;
5157;SDS011;2598;52.364;9.772;2024-03-08T10:17:36;25.00;;;12.03;;
5157;SDS011;2598;52.364;9.772;2024-03-08T10:20:06;24.37;;;12.67;;
5157;SDS011;2598;52.364;9.772;2024-03-08T10:22:39;32.97;;;12.90;;
5157;SDS011;2598;52.364;9.772;2024-03-08T10:25:07;30.63;;;13.87;;
5157;SDS011;2598;52.364;9.772;2024-03-08T10:27:35;26.67;;;12.50;;
5157;SDS011;2598;52.364;9.772;2024-03-08T10:30:01;27.30;;;12.90;;
5157;SDS011;2598;52.364;9.772;2024-03-08T10:32:27;25.40;;;11.40;;
5157;SDS011;2598;52.364;9.772;2024-03-08T10:34:53;30.53;;;13.33;;
5157;SDS011;2598;52.364;9.772;2024-03-08T10:37:21;26.53;;;13.20;;
5157;SDS011;2598;52.364;9.772;2024-03-08T10:40:00;25.73;;;12.63;;
5157;SDS011;2598;52.364;9.772;2024-03-08T10:42:35;37.43;;;14.27;;
5157;SDS011;2598;52.364;9.772;2024-03-08T10:45:10;25.73;;;11.70;;
5157;SDS011;2598;52.364;9.772;2024-03-08T10:47:40;26.13;;;12.27;;
5157;SDS011;2598;52.364;9.772;2024-03-08T10:52:39;27.47;;;12.90;;
5157;SDS011;2598;52.364;9.772;2024-03-08T10:55:05;20.17;;;11.30;;
5157;SDS011;2598;52.364;9.772;2024-03-08T10:57:37;22.93;;;11.73;;
5157;SDS011;2598;52.364;9.772;2024-03-08T11:00:04;27.13;;;13.23;;
5157;SDS011;2598;52.364;9.772;2024-03-08T11:02:35;22.83;;;11.50;;
5157;SDS011;2598;52.364;9.772;2024-03-08T11:05:02;26.57;;;12.70;;
5157;SDS011;2598;52.364;9.772;2024-03-08T11:07:30;22.50;;;11.77;;
5157;SDS011;2598;52.364;9.772;2024-03-08T11:09:59;24.87;;;11.70;;
5157;SDS011;2598;52.364;9.772;2024-03-08T11:12:30;28.20;;;13.00;;
5157;SDS011;2598;52.364;9.772;2024-03-08T11:15:02;23.10;;;12.00;;
5157;SDS011;2598;52.364;9.772;2024-03-08T11:20:02;28.17;;;12.57;;
5157;SDS011;2598;52.364;9.772;2024-03-08T11:22:40;21.10;;;11.10;;
5157;SDS011;2598;52.364;9.772;2024-03-08T11:25:08;24.03;;;11.37;;
5157;SDS011;2598;52.364;9.772;2024-03-08T11:27:38;40.60;;;13.10;;
5157;SDS011;2598;52.364;9.772;2024-03-08T11:30:04;22.77;;;11.90;;
5157;SDS011;2598;52.364;9.772;2024-03-08T11:32:35;25.80;;;11.73;;
5157;SDS011;2598;52.364;9.772;2024-03-08T11:35:03;24.30;;;12.43;;
5157;SDS011;2598;52.364;9.772;2024-03-08T11:37:32;22.27;;;11.63;;
5157;SDS011;2598;52.364;9.772;2024-03-08T11:39:59;25.23;;;12.93;;
5157;SDS011;2598;52.364;9.772;2024-03-08T11:42:29;22.77;;;12.20;;
5157;SDS011;2598;52.364;9.772;2024-03-08T11:44:55;23.27;;;12.07;;
5157;SDS011;2598;52.364;9.772;2024-03-08T11:47:23;31.07;;;13.27;;
5157;SDS011;2598;52.364;9.772;2024-03-08T11:49:51;25.37;;;12.90;;
5157;SDS011;2598;52.364;9.772;2024-03-08T11:52:18;28.47;;;13.10;;
5157;SDS011;2598;52.364;9.772;2024-03-08T11:54:49;26.23;;;11.37;;
5157;SDS011;2598;52.364;9.772;2024-03-08T11:57:20;24.27;;;11.83;;
5157;SDS011;2598;52.364;9.772;2024-03-08T11:59:53;26.83;;;12.77;;
5157;SDS011;2598;52.364;9.772;2024-03-08T12:02:20;36.43;;;13.00;;
5157;SDS011;2598;52.364;9.772;2024-03-08T12:04:46;24.83;;;12.37;;
5157;SDS011;2598;52.364;9.772;2024-03-08T12:07:12;22.67;;;12.87;;
5157;SDS011;2598;52.364;9.772;2024-03-08T12:09:42;26.40;;;12.40;;
5157;SDS011;2598;52.364;9.772;2024-03-08T12:12:11;21.97;;;11.20;;
5157;SDS011;2598;52.364;9.772;2024-03-08T12:14:37;23.67;;;11.30;;
5157;SDS011;2598;52.364;9.772;2024-03-08T12:17:04;20.47;;;10.37;;
5157;SDS011;2598;52.364;9.772;2024-03-08T12:19:30;23.07;;;10.67;;
5157;SDS011;2598;52.364;9.772;2024-03-08T12:21:57;20.03;;;9.10;;
5157;SDS011;2598;52.364;9.772;2024-03-08T12:24:33;19.10;;;10.33;;
5157;SDS011;2598;52.364;9.772;2024-03-08T12:27:01;22.47;;;11.30;;
5157;SDS011;2598;52.364;9.772;2024-03-08T12:29:30;23.80;;;9.93;;
5157;SDS011;2598;52.364;9.772;2024-03-08T12:31:59;24.17;;;10.60;;
5157;SDS011;2598;52.364;9.772;2024-03-08T12:34:26;23.23;;;9.73;;
5157;SDS011;2598;52.364;9.772;2024-03-08T12:36:53;15.83;;;8.70;;
5157;SDS011;2598;52.364;9.772;2024-03-08T12:39:20;17.50;;;8.70;;
5157;SDS011;2598;52.364;9.772;2024-03-08T12:41:55;19.43;;;9.63;;
5157;SDS011;2598;52.364;9.772;2024-03-08T12:44:25;21.67;;;10.33;;
5157;SDS011;2598;52.364;9.772;2024-03-08T12:46:53;19.87;;;10.90;;
5157;SDS011;2598;52.364;9.772;2024-03-08T12:49:19;21.10;;;11.50;;
5157;SDS011;2598;52.364;9.772;2024-03-08T12:51:47;19.57;;;10.17;;
5157;SDS011;2598;52.364;9.772;2024-03-08T12:54:13;20.65;;;11.90;;
5157;SDS011;2598;52.364;9.772;2024-03-08T12:56:39;18.60;;;9.97;;
5157;SDS011;2598;52.364;9.772;2024-03-08T12:59:05;23.77;;;11.73;;
5157;SDS011;2598;52.364;9.772;2024-03-08T13:01:32;26.80;;;12.03;;
5157;SDS011;2598;52.364;9.772;2024-03-08T13:03:58;23.60;;;12.70;;
5157;SDS011;2598;52.364;9.772;2024-03-08T13:06:26;25.03;;;13.13;;
5157;SDS011;2598;52.364;9.772;2024-03-08T13:08:53;24.80;;;12.27;;
5157;SDS011;2598;52.364;9.772;2024-03-08T13:11:20;26.80;;;12.83;;
5157;SDS011;2598;52.364;9.772;2024-03-08T13:13:46;26.40;;;13.90;;
5157;SDS011;2598;52.364;9.772;2024-03-08T13:16:12;27.30;;;12.30;;
5157;SDS011;2598;52.364;9.772;2024-03-08T13:18:43;25.67;;;12.80;;
5157;SDS011;2598;52.364;9.772;2024-03-08T13:21:09;27.07;;;13.20;;
5157;SDS011;2598;52.364;9.772;2024-03-08T13:23:36;23.33;;;11.77;;
5157;SDS011;2598;52.364;9.772;2024-03-08T13:26:05;22.97;;;11.70;;
5157;SDS011;2598;52.364;9.772;2024-03-08T13:28:32;25.03;;;11.80;;
5157;SDS011;2598;52.364;9.772;2024-03-08T13:31:02;19.53;;;11.63;;
5157;SDS011;2598;52.364;9.772;2024-03-08T13:33:28;24.83;;;12.00;;
5157;SDS011;2598;52.364;9.772;2024-03-08T13:35:55;20.53;;;10.93;;
5157;SDS011;2598;52.364;9.772;2024-03-08T13:38:22;21.73;;;10.73;;
5157;SDS011;2598;52.364;9.772;2024-03-08T13:40:48;28.23;;;11.27;;
5157;SDS011;2598;52.364;9.772;2024-03-08T13:43:14;23.90;;;11.83;;
5157;SDS011;2598;52.364;9.772;2024-03-08T13:45:40;23.40;;;11.03;;
5157;SDS011;2598;52.364;9.772;2024-03-08T13:48:06;20.53;;;10.97;;
5157;SDS011;2598;52.364;9.772;2024-03-08T13:50:37;17.80;;;10.43;;
5157;SDS011;2598;52.364;9.772;2024-03-08T13:53:03;22.53;;;11.60;;
5157;SDS011;2598;52.364;9.772;2024-03-08T13:55:29;22.40;;;11.47;;
5157;SDS011;2598;52.364;9.772;2024-03-08T13:57:55;23.63;;;11.53;;
5157;SDS011;2598;52.364;9.772;2024-03-08T14:00:22;20.43;;;10.47;;
5157;SDS011;2598;52.364;9.772;2024-03-08T14:02:50;23.17;;;11.10;;
5157;SDS011;2598;52.364;9.772;2024-03-08T14:05:16;20.87;;;10.77;;
5157;SDS011;2598;52.364;9.772;2024-03-08T14:07:44;21.10;;;11.10;;
5157;SDS011;2598;52.364;9.772;2024-03-08T14:10:12;25.83;;;11.90;;
5157;SDS011;2598;52.364;9.772;2024-03-08T14:12:38;26.20;;;11.43;;
5157;SDS011;2598;52.364;9.772;2024-03-08T14:15:04;21.20;;;10.87;;
5157;SDS011;2598;52.364;9.772;2024-03-08T14:17:31;19.33;;;9.73;;
5157;SDS011;2598;52.364;9.772;2024-03-08T14:19:57;21.70;;;11.73;;
5157;SDS011;2598;52.364;9.772;2024-03-08T14:22:24;22.97;;;11.53;;
5157;SDS011;2598;52.364;9.772;2024-03-08T14:24:50;23.83;;;10.77;;
5157;SDS011;2598;52.364;9.772;2024-03-08T14:27:16;18.17;;;9.73;;
5157;SDS011;2598;52.364;9.772;2024-03-08T14:29:43;15.40;;;8.47;;
5157;SDS011;2598;52.364;9.772;2024-03-08T14:32:09;19.13;;;9.50;;
5157;SDS011;2598;52.364;9.772;2024-03-08T14:34:35;20.00;;;9.70;;
5157;SDS011;2598;52.364;9.772;2024-03-08T14:37:02;15.80;;;8.80;;
5157;SDS011;2598;52.364;9.772;2024-03-08T14:39:36;18.47;;;8.80;;
5157;SDS011;2598;52.364;9.772;2024-03-08T14:42:02;20.63;;;10.40;;
5157;SDS011;2598;52.364;9.772;2024-03-08T14:44:29;18.83;;;9.37;;
5157;SDS011;2598;52.364;9.772;2024-03-08T14:46:55;18.47;;;10.10;;
5157;SDS011;2598;52.364;9.772;2024-03-08T14:49:24;15.90;;;9.67;;
5157;SDS011;2598;52.364;9.772;2024-03-08T14:51:54;23.67;;;10.97;;
5157;SDS011;2598;52.364;9.772;2024-03-08T14:54:20;19.47;;;9.60;;
5157;SDS011;2598;52.364;9.772;2024-03-08T14:56:48;20.27;;;10.40;;
5157;SDS011;2598;52.364;9.772;2024-03-08T14:59:15;19.20;;;10.63;;